createdAt,value
2017-07-15T00:00:10.391Z,1012.07
2017-07-15T00:01:04.483Z,1012.10
2017-07-15T00:01:52.405Z,1012.14
2017-07-15T00:02:40.477Z,1012.10
2017-07-15T00:03:35.591Z,1012.12
2017-07-15T00:04:35.572Z,1012.12
2017-07-15T00:05:29.508Z,1012.12
2017-07-15T00:06:23.627Z,1012.10
2017-07-15T00:07:17.774Z,1012.17
2017-07-15T00:08:17.616Z,1012.09
2017-07-15T00:09:12.729Z,1012.12
2017-07-15T00:10:12.842Z,1012.15
2017-07-15T00:11:07.790Z,1012.18
2017-07-15T00:12:02.088Z,1012.12
2017-07-15T00:12:50.882Z,1012.09
2017-07-15T00:13:44.921Z,1012.11
2017-07-15T00:14:39.003Z,1012.15
2017-07-15T00:15:27.002Z,1012.08
2017-07-15T00:16:16.093Z,1012.12
2017-07-15T00:17:04.481Z,1012.14
2017-07-15T00:17:52.037Z,1012.14
2017-07-15T00:18:46.183Z,1012.16
2017-07-15T00:19:34.215Z,1012.20
2017-07-15T00:20:28.263Z,1012.15
2017-07-15T00:21:22.347Z,1012.18
2017-07-15T00:22:16.228Z,1012.19
2017-07-15T00:23:10.345Z,1012.17
2017-07-15T00:24:04.377Z,1012.17
2017-07-15T00:24:58.431Z,1012.20
2017-07-15T00:25:47.467Z,1012.21
2017-07-15T00:26:35.460Z,1012.25
2017-07-15T00:27:23.896Z,1012.24
2017-07-15T00:28:17.564Z,1012.22
2017-07-15T00:29:05.659Z,1012.26
2017-07-15T00:30:06.688Z,1012.28
2017-07-15T00:31:00.738Z,1012.22
2017-07-15T00:31:48.745Z,1012.26
2017-07-15T00:32:42.818Z,1012.26
2017-07-15T00:33:42.926Z,1012.24
2017-07-15T00:34:37.880Z,1012.27
2017-07-15T00:35:32.905Z,1012.26
2017-07-15T00:36:32.955Z,1012.26
2017-07-15T00:37:27.453Z,1012.27
2017-07-15T00:38:22.040Z,1012.25
2017-07-15T00:39:11.030Z,1012.24
2017-07-15T00:40:00.082Z,1012.27
2017-07-15T00:40:49.031Z,1012.29
2017-07-15T00:41:44.178Z,1012.25
2017-07-15T00:42:38.171Z,1012.27
2017-07-15T00:43:27.288Z,1012.29
2017-07-15T00:44:27.228Z,1012.26
2017-07-15T00:45:16.324Z,1012.25
2017-07-15T00:46:05.384Z,1012.25
2017-07-15T00:47:00.418Z,1012.26
2017-07-15T00:47:55.426Z,1012.28
2017-07-15T00:48:44.492Z,1012.29
2017-07-15T00:49:39.491Z,1012.27
2017-07-15T00:50:27.576Z,1012.31
2017-07-15T00:51:28.586Z,1012.33
2017-07-15T00:52:30.554Z,1012.34
2017-07-15T00:53:18.639Z,1012.32
2017-07-15T00:54:06.716Z,1012.28
2017-07-15T00:55:00.721Z,1012.25
2017-07-15T00:55:55.746Z,1012.32
2017-07-15T00:56:43.748Z,1012.31
2017-07-15T00:57:32.866Z,1012.30
2017-07-15T00:58:20.896Z,1012.30
2017-07-15T00:59:09.087Z,1012.35
2017-07-15T01:00:02.916Z,1012.36
2017-07-15T01:01:02.909Z,1012.32
2017-07-15T01:02:03.118Z,1012.34
2017-07-15T01:02:57.210Z,1012.35
2017-07-15T01:03:46.488Z,1012.33
2017-07-15T01:04:40.072Z,1012.36
2017-07-15T01:05:40.212Z,1012.35
2017-07-15T01:06:40.244Z,1012.35
2017-07-15T01:07:40.349Z,1012.37
2017-07-15T01:08:41.301Z,1012.34
2017-07-15T01:09:41.322Z,1012.32
2017-07-15T01:10:35.320Z,1012.35
2017-07-15T01:11:35.329Z,1012.38
2017-07-15T01:12:24.633Z,1012.40
2017-07-15T01:13:24.452Z,1012.37
2017-07-15T01:14:19.515Z,1012.42
2017-07-15T01:15:14.474Z,1012.39
2017-07-15T01:16:14.560Z,1012.39
2017-07-15T01:17:08.779Z,1012.40
2017-07-15T01:18:02.632Z,1012.43
2017-07-15T01:18:56.718Z,1012.43
2017-07-15T01:19:50.753Z,1012.37
2017-07-15T01:20:44.728Z,1012.39
2017-07-15T01:21:38.777Z,1012.38
2017-07-15T01:22:32.793Z,1012.35
2017-07-15T01:23:26.821Z,1012.36
2017-07-15T01:24:26.862Z,1012.35
2017-07-15T01:25:21.931Z,1012.35
2017-07-15T01:26:16.987Z,1012.35
2017-07-15T01:27:11.023Z,1012.36
2017-07-15T01:28:00.111Z,1012.35
2017-07-15T01:28:54.154Z,1012.37
2017-07-15T01:29:54.055Z,1012.38
2017-07-15T01:30:48.206Z,1012.38
2017-07-15T01:31:42.197Z,1012.33
2017-07-15T01:32:36.294Z,1012.38
2017-07-15T01:33:36.161Z,1012.35
2017-07-15T01:34:31.228Z,1012.40
2017-07-15T01:35:32.280Z,1012.43
2017-07-15T01:36:20.461Z,1012.42
2017-07-15T01:37:08.778Z,1012.39
2017-07-15T01:37:57.492Z,1012.39
2017-07-15T01:38:51.463Z,1012.39
2017-07-15T01:39:45.767Z,1012.43
2017-07-15T01:40:40.528Z,1012.43
2017-07-15T01:41:35.539Z,1012.46
2017-07-15T01:42:30.096Z,1012.42
2017-07-15T01:43:23.663Z,1012.44
2017-07-15T01:44:12.648Z,1012.44
2017-07-15T01:45:06.715Z,1012.46
2017-07-15T01:46:00.757Z,1012.42
2017-07-15T01:46:56.099Z,1012.48
2017-07-15T01:47:50.121Z,1012.46
2017-07-15T01:48:37.918Z,1012.46
2017-07-15T01:49:26.976Z,1012.43
2017-07-15T01:50:15.968Z,1012.45
2017-07-15T01:51:10.053Z,1012.45
2017-07-15T01:52:10.308Z,1012.44
2017-07-15T01:53:04.011Z,1012.40
2017-07-15T01:54:04.009Z,1012.46
2017-07-15T01:54:53.154Z,1012.46
2017-07-15T01:55:53.173Z,1012.43
2017-07-15T01:56:47.168Z,1012.45
2017-07-15T01:57:41.475Z,1012.46
2017-07-15T01:58:35.210Z,1012.45
2017-07-15T01:59:35.372Z,1012.47
2017-07-15T02:00:29.324Z,1012.46
2017-07-15T02:01:24.371Z,1012.46
2017-07-15T02:02:24.385Z,1012.51
2017-07-15T02:03:13.442Z,1012.47
2017-07-15T02:04:07.501Z,1012.52
2017-07-15T02:05:02.501Z,1012.50
2017-07-15T02:05:51.638Z,1012.49
2017-07-15T02:06:45.505Z,1012.51
2017-07-15T02:07:39.665Z,1012.48
2017-07-15T02:08:27.826Z,1012.48
2017-07-15T02:09:22.684Z,1012.51
2017-07-15T02:10:17.792Z,1012.50
2017-07-15T02:11:06.838Z,1012.54
2017-07-15T02:12:00.827Z,1012.52
2017-07-15T02:13:01.935Z,1012.51
2017-07-15T02:13:50.926Z,1012.52
2017-07-15T02:14:51.039Z,1012.55
2017-07-15T02:15:45.139Z,1012.52
2017-07-15T02:16:38.894Z,1012.55
2017-07-15T02:17:28.479Z,1012.53
2017-07-15T02:18:22.107Z,1012.56
2017-07-15T02:19:17.117Z,1012.59
2017-07-15T02:20:17.190Z,1012.60
2017-07-15T02:21:11.244Z,1012.61
2017-07-15T02:22:05.274Z,1012.65
2017-07-15T02:23:00.351Z,1012.62
2017-07-15T02:23:54.335Z,1012.62
2017-07-15T02:24:48.277Z,1012.59
2017-07-15T02:25:37.351Z,1012.60
2017-07-15T02:26:26.453Z,1012.63
2017-07-15T02:27:15.370Z,1012.60
2017-07-15T02:28:04.421Z,1012.59
2017-07-15T02:28:53.437Z,1012.61
2017-07-15T02:29:53.579Z,1012.63
2017-07-15T02:30:47.567Z,1012.63
2017-07-15T02:31:42.973Z,1012.65
2017-07-15T02:32:36.619Z,1012.64
2017-07-15T02:33:42.733Z,1012.63
2017-07-15T02:34:37.919Z,1012.60
2017-07-15T02:35:32.780Z,1012.64
2017-07-15T02:36:26.853Z,1012.60
2017-07-15T02:37:20.945Z,1012.63
2017-07-15T02:38:20.884Z,1012.64
2017-07-15T02:39:15.897Z,1012.65
2017-07-15T02:40:09.941Z,1012.66
2017-07-15T02:41:05.102Z,1012.68
2017-07-15T02:41:58.964Z,1012.71
2017-07-15T02:42:54.044Z,1012.71
2017-07-15T02:43:42.539Z,1012.70
2017-07-15T02:44:36.115Z,1012.69
2017-07-15T02:45:25.109Z,1012.72
2017-07-15T02:46:19.268Z,1012.74
2017-07-15T02:47:19.290Z,1012.74
2017-07-15T02:48:13.366Z,1012.76
2017-07-15T02:49:02.283Z,1012.77
2017-07-15T02:50:02.424Z,1012.77
2017-07-15T02:51:02.378Z,1012.80
2017-07-15T02:51:56.460Z,1012.82
2017-07-15T02:52:45.432Z,1012.78
2017-07-15T02:53:39.469Z,1012.82
2017-07-15T02:54:33.519Z,1012.81
2017-07-15T02:55:22.595Z,1012.84
2017-07-15T02:56:11.635Z,1012.83
2017-07-15T02:57:06.772Z,1012.83
2017-07-15T02:57:55.755Z,1012.88
2017-07-15T02:58:44.726Z,1012.90
2017-07-15T02:59:38.763Z,1012.86
2017-07-15T03:00:27.943Z,1012.91
2017-07-15T03:01:15.825Z,1012.93
2017-07-15T03:02:10.938Z,1012.93
2017-07-15T03:03:05.841Z,1012.97
2017-07-15T03:04:00.070Z,1012.93
2017-07-15T03:04:54.091Z,1012.95
2017-07-15T03:05:48.091Z,1012.95
2017-07-15T03:06:42.444Z,1012.96
2017-07-15T03:07:37.211Z,1012.95
2017-07-15T03:08:31.170Z,1012.97
2017-07-15T03:09:19.175Z,1012.97
2017-07-15T03:10:19.279Z,1012.96
2017-07-15T03:11:25.278Z,1012.94
2017-07-15T03:12:19.494Z,1012.98
2017-07-15T03:13:13.404Z,1012.97
2017-07-15T03:14:07.385Z,1012.98
2017-07-15T03:15:07.359Z,1012.97
2017-07-15T03:16:02.461Z,1013.02
2017-07-15T03:17:02.434Z,1013.02
2017-07-15T03:17:57.576Z,1013.05
2017-07-15T03:18:45.785Z,1013.04
2017-07-15T03:19:41.011Z,1013.00
2017-07-15T03:20:34.734Z,1013.03
2017-07-15T03:21:28.664Z,1013.02
2017-07-15T03:22:23.738Z,1013.00
2017-07-15T03:23:17.742Z,1013.05
2017-07-15T03:24:11.824Z,1013.03
2017-07-15T03:25:01.221Z,1013.08
2017-07-15T03:26:01.826Z,1013.08
2017-07-15T03:26:55.947Z,1013.04
2017-07-15T03:27:44.874Z,1013.05
2017-07-15T03:28:38.955Z,1013.07
2017-07-15T03:29:33.094Z,1013.06
2017-07-15T03:30:27.075Z,1013.09
2017-07-15T03:31:21.079Z,1013.12
2017-07-15T03:32:15.186Z,1013.10
2017-07-15T03:33:09.241Z,1013.11
2017-07-15T03:33:58.183Z,1013.10
2017-07-15T03:34:46.274Z,1013.14
2017-07-15T03:35:34.280Z,1013.19
2017-07-15T03:36:34.302Z,1013.15
2017-07-15T03:37:28.356Z,1013.20
2017-07-15T03:38:22.432Z,1013.22
2017-07-15T03:39:16.581Z,1013.22
2017-07-15T03:40:10.462Z,1013.28
2017-07-15T03:41:10.490Z,1013.29
2017-07-15T03:41:59.517Z,1013.29
2017-07-15T03:42:53.602Z,1013.32
2017-07-15T03:43:42.169Z,1013.36
2017-07-15T03:44:35.691Z,1013.40
2017-07-15T03:45:30.704Z,1013.38
2017-07-15T03:46:31.751Z,1013.37
2017-07-15T03:47:25.754Z,1013.42
2017-07-15T03:48:25.778Z,1013.45
2017-07-15T03:49:20.970Z,1013.45
2017-07-15T03:50:15.871Z,1013.39
2017-07-15T03:51:09.933Z,1013.43
2017-07-15T03:52:09.991Z,1013.45
2017-07-15T03:53:04.005Z,1013.42
2017-07-15T03:54:05.185Z,1013.45
2017-07-15T03:54:59.057Z,1013.46
2017-07-15T03:55:47.157Z,1013.47
2017-07-15T03:56:42.200Z,1013.45
2017-07-15T03:57:37.174Z,1013.47
2017-07-15T03:58:31.209Z,1013.50
2017-07-15T03:59:26.226Z,1013.48
2017-07-15T04:00:20.275Z,1013.55
2017-07-15T04:01:09.449Z,1013.56
2017-07-15T04:02:03.504Z,1013.56
2017-07-15T04:02:57.497Z,1013.54
2017-07-15T04:03:57.517Z,1013.56
2017-07-15T04:04:45.503Z,1013.56
2017-07-15T04:05:45.548Z,1013.58
2017-07-15T04:06:40.633Z,1013.61
2017-07-15T04:07:29.745Z,1013.57
2017-07-15T04:08:24.695Z,1013.64
2017-07-15T04:09:19.616Z,1013.62
2017-07-15T04:10:14.733Z,1013.66
2017-07-15T04:11:02.806Z,1013.64
2017-07-15T04:11:57.794Z,1013.62
2017-07-15T04:12:52.869Z,1013.67
2017-07-15T04:13:46.896Z,1013.67
2017-07-15T04:14:35.829Z,1013.71
2017-07-15T04:15:24.999Z,1013.71
2017-07-15T04:16:19.055Z,1013.73
2017-07-15T04:17:13.115Z,1013.79
2017-07-15T04:18:07.169Z,1013.77
2017-07-15T04:19:01.226Z,1013.79
2017-07-15T04:19:56.164Z,1013.81
2017-07-15T04:20:45.144Z,1013.81
2017-07-15T04:21:39.299Z,1013.84
2017-07-15T04:22:39.302Z,1013.85
2017-07-15T04:23:28.568Z,1013.84
2017-07-15T04:24:22.375Z,1013.86
2017-07-15T04:25:22.354Z,1013.88
2017-07-15T04:26:11.419Z,1013.92
2017-07-15T04:27:00.526Z,1013.93
2017-07-15T04:28:00.565Z,1013.93
2017-07-15T04:28:55.626Z,1013.93
2017-07-15T04:29:50.516Z,1013.92
2017-07-15T04:30:44.695Z,1013.94
2017-07-15T04:31:39.132Z,1013.97
2017-07-15T04:32:26.765Z,1013.92
2017-07-15T04:33:20.699Z,1013.94
2017-07-15T04:34:15.854Z,1013.95
2017-07-15T04:35:09.853Z,1013.99
2017-07-15T04:36:03.924Z,1014.00
2017-07-15T04:36:58.888Z,1013.95
2017-07-15T04:37:53.032Z,1014.03
2017-07-15T04:38:46.996Z,1014.02
2017-07-15T04:39:47.081Z,1013.98
2017-07-15T04:40:41.035Z,1014.01
2017-07-15T04:41:42.107Z,1014.02
2017-07-15T04:42:36.162Z,1014.01
2017-07-15T04:43:36.202Z,1014.03
2017-07-15T04:44:31.259Z,1014.00
2017-07-15T04:45:25.265Z,1013.99
2017-07-15T04:46:19.359Z,1013.99
2017-07-15T04:47:13.407Z,1014.00
2017-07-15T04:48:07.332Z,1014.02
2017-07-15T04:49:01.495Z,1013.99
2017-07-15T04:49:50.453Z,1013.98
2017-07-15T04:50:39.548Z,1013.96
2017-07-15T04:51:40.040Z,1013.97
2017-07-15T04:52:39.542Z,1014.03
2017-07-15T04:53:39.637Z,1014.02
2017-07-15T04:54:33.636Z,1014.00
2017-07-15T04:55:21.683Z,1014.03
2017-07-15T04:56:16.798Z,1014.05
2017-07-15T04:57:04.814Z,1014.07
2017-07-15T04:57:52.897Z,1014.06
2017-07-15T04:58:46.971Z,1014.01
2017-07-15T04:59:34.811Z,1014.04
2017-07-15T05:00:35.071Z,1014.01
2017-07-15T05:01:24.144Z,1014.05
2017-07-15T05:02:19.074Z,1013.99
2017-07-15T05:03:13.156Z,1014.08
2017-07-15T05:04:14.077Z,1014.03
2017-07-15T05:05:09.108Z,1014.01
2017-07-15T05:06:04.274Z,1014.01
2017-07-15T05:06:58.287Z,1014.02
2017-07-15T05:07:52.248Z,1014.01
2017-07-15T05:08:41.368Z,1014.02
2017-07-15T05:09:30.460Z,1014.05
2017-07-15T05:10:18.351Z,1014.03
2017-07-15T05:11:12.439Z,1014.05
2017-07-15T05:12:06.592Z,1014.07
2017-07-15T05:13:06.509Z,1014.10
2017-07-15T05:14:06.570Z,1014.10
2017-07-15T05:15:07.567Z,1014.14
2017-07-15T05:16:08.575Z,1014.11
2017-07-15T05:17:02.585Z,1014.10
2017-07-15T05:17:51.745Z,1014.12
2017-07-15T05:18:46.737Z,1014.11
2017-07-15T05:19:34.729Z,1014.13
2017-07-15T05:20:23.820Z,1014.13
2017-07-15T05:21:12.999Z,1014.17
2017-07-15T05:22:08.004Z,1014.20
2017-07-15T05:23:01.979Z,1014.24
2017-07-15T05:23:56.114Z,1014.15
2017-07-15T05:24:50.445Z,1014.19
2017-07-15T05:25:50.058Z,1014.24
2017-07-15T05:26:44.171Z,1014.21
2017-07-15T05:27:38.611Z,1014.24
2017-07-15T05:28:27.346Z,1014.25
2017-07-15T05:29:15.347Z,1014.21
2017-07-15T05:30:09.296Z,1014.22
2017-07-15T05:30:57.335Z,1014.23
2017-07-15T05:31:46.878Z,1014.28
2017-07-15T05:32:40.490Z,1014.25
2017-07-15T05:33:28.559Z,1014.29
2017-07-15T05:34:28.548Z,1014.31
2017-07-15T05:35:28.542Z,1014.33
2017-07-15T05:36:17.570Z,1014.33
2017-07-15T05:37:12.597Z,1014.31
2017-07-15T05:38:07.672Z,1014.36
2017-07-15T05:39:02.150Z,1014.34
2017-07-15T05:39:55.706Z,1014.32
2017-07-15T05:40:50.788Z,1014.37
2017-07-15T05:41:51.288Z,1014.40
2017-07-15T05:42:38.864Z,1014.41
2017-07-15T05:43:39.266Z,1014.42
2017-07-15T05:44:34.045Z,1014.41
2017-07-15T05:45:22.040Z,1014.44
2017-07-15T05:46:17.129Z,1014.46
2017-07-15T05:47:06.044Z,1014.41
2017-07-15T05:48:00.155Z,1014.42
2017-07-15T05:48:54.118Z,1014.39
2017-07-15T05:49:42.203Z,1014.42
2017-07-15T05:50:37.271Z,1014.39
2017-07-15T05:51:26.317Z,1014.42
2017-07-15T05:52:20.358Z,1014.44
2017-07-15T05:53:20.326Z,1014.44
2017-07-15T05:54:08.405Z,1014.47
2017-07-15T05:55:08.498Z,1014.49
2017-07-15T05:55:57.555Z,1014.42
2017-07-15T05:56:52.025Z,1014.47
2017-07-15T05:57:45.633Z,1014.47
2017-07-15T05:58:34.763Z,1014.51
2017-07-15T05:59:28.675Z,1014.51
2017-07-15T06:00:28.962Z,1014.52
2017-07-15T06:01:22.879Z,1014.48
2017-07-15T06:02:23.900Z,1014.50
2017-07-15T06:03:23.858Z,1014.54
2017-07-15T06:04:17.941Z,1014.52
2017-07-15T06:05:11.911Z,1014.52
2017-07-15T06:06:00.357Z,1014.61
2017-07-15T06:07:01.081Z,1014.63
2017-07-15T06:07:56.069Z,1014.63
2017-07-15T06:08:50.056Z,1014.70
2017-07-15T06:09:39.351Z,1014.59
2017-07-15T06:10:27.097Z,1014.47
2017-07-15T06:11:28.459Z,1014.58
2017-07-15T06:12:17.601Z,1014.54
2017-07-15T06:13:12.397Z,1014.55
2017-07-15T06:14:06.470Z,1014.49
2017-07-15T06:15:00.650Z,1014.52
2017-07-15T06:15:48.510Z,1014.55
2017-07-15T06:16:42.623Z,1014.48
2017-07-15T06:17:38.003Z,1014.47
2017-07-15T06:18:26.962Z,1014.44
2017-07-15T06:19:20.728Z,1014.43
2017-07-15T06:20:14.729Z,1014.53
2017-07-15T06:21:08.846Z,1014.62
2017-07-15T06:21:58.731Z,1014.63
2017-07-15T06:22:57.917Z,1014.56
2017-07-15T06:23:51.895Z,1014.58
2017-07-15T06:24:45.956Z,1014.62
2017-07-15T06:25:35.036Z,1014.68
2017-07-15T06:26:30.169Z,1014.66
2017-07-15T06:27:18.455Z,1014.66
2017-07-15T06:28:07.245Z,1014.70
2017-07-15T06:28:55.283Z,1014.72
2017-07-15T06:29:49.354Z,1014.70
2017-07-15T06:30:38.322Z,1014.77
2017-07-15T06:31:32.523Z,1014.76
2017-07-15T06:32:32.611Z,1014.77
2017-07-15T06:33:21.511Z,1014.82
2017-07-15T06:34:16.510Z,1014.88
2017-07-15T06:35:05.509Z,1014.89
2017-07-15T06:35:59.557Z,1014.93
2017-07-15T06:36:48.251Z,1014.96
2017-07-15T06:37:42.735Z,1014.93
2017-07-15T06:38:30.828Z,1014.92
2017-07-15T06:39:18.829Z,1014.95
2017-07-15T06:40:12.829Z,1015.00
2017-07-15T06:41:12.848Z,1015.04
2017-07-15T06:42:06.952Z,1014.98
2017-07-15T06:42:56.069Z,1015.00
2017-07-15T06:43:50.056Z,1014.99
2017-07-15T06:44:39.233Z,1014.97
2017-07-15T06:45:33.157Z,1015.01
2017-07-15T06:46:22.196Z,1015.08
2017-07-15T06:47:10.248Z,1015.07
2017-07-15T06:47:59.259Z,1015.11
2017-07-15T06:48:48.443Z,1015.17
2017-07-15T06:49:37.359Z,1015.14
2017-07-15T06:50:26.439Z,1015.15
2017-07-15T06:51:15.381Z,1015.07
2017-07-15T06:52:09.527Z,1015.10
2017-07-15T06:53:03.527Z,1015.18
2017-07-15T06:53:52.623Z,1015.12
2017-07-15T06:54:41.655Z,1015.20
2017-07-15T06:55:36.189Z,1015.22
2017-07-15T06:56:35.657Z,1015.22
2017-07-15T06:57:30.755Z,1015.25
2017-07-15T06:58:19.976Z,1015.22
2017-07-15T06:59:08.839Z,1015.29
2017-07-15T07:00:02.927Z,1015.34
2017-07-15T07:00:50.880Z,1015.28
2017-07-15T07:01:39.954Z,1015.24
2017-07-15T07:02:28.942Z,1015.17
2017-07-15T07:03:24.188Z,1015.10
2017-07-15T07:04:18.077Z,1015.02
2017-07-15T07:05:06.216Z,1015.03
2017-07-15T07:06:00.238Z,1014.97
2017-07-15T07:06:55.614Z,1015.00
2017-07-15T07:07:56.258Z,1015.05
2017-07-15T07:08:56.472Z,1015.15
2017-07-15T07:09:44.495Z,1015.26
2017-07-15T07:10:32.403Z,1015.23
2017-07-15T07:11:21.593Z,1015.33
2017-07-15T07:12:15.630Z,1015.35
2017-07-15T07:13:10.534Z,1015.35
2017-07-15T07:14:10.710Z,1015.37
2017-07-15T07:15:04.657Z,1015.37
2017-07-15T07:15:58.659Z,1015.37
2017-07-15T07:16:53.130Z,1015.34
2017-07-15T07:17:40.731Z,1015.31
2017-07-15T07:18:29.841Z,1015.31
2017-07-15T07:19:19.077Z,1015.35
2017-07-15T07:20:07.957Z,1015.40
2017-07-15T07:20:56.083Z,1015.34
2017-07-15T07:21:51.605Z,1015.33
2017-07-15T07:22:45.131Z,1015.30
2017-07-15T07:23:39.096Z,1015.39
2017-07-15T07:24:33.213Z,1015.45
2017-07-15T07:25:27.242Z,1015.48
2017-07-15T07:26:21.219Z,1015.46
2017-07-15T07:27:15.245Z,1015.41
2017-07-15T07:28:10.349Z,1015.50
2017-07-15T07:29:10.358Z,1015.49
2017-07-15T07:30:04.484Z,1015.51
2017-07-15T07:31:04.504Z,1015.54
2017-07-15T07:31:59.502Z,1015.57
2017-07-15T07:32:48.616Z,1015.56
2017-07-15T07:33:42.585Z,1015.55
2017-07-15T07:34:37.637Z,1015.55
2017-07-15T07:35:31.705Z,1015.58
2017-07-15T07:36:26.767Z,1015.50
2017-07-15T07:37:20.735Z,1015.55
2017-07-15T07:38:14.888Z,1015.57
2017-07-15T07:39:03.808Z,1015.48
2017-07-15T07:39:53.025Z,1015.58
2017-07-15T07:40:47.981Z,1015.59
2017-07-15T07:41:48.080Z,1015.65
2017-07-15T07:42:43.266Z,1015.61
2017-07-15T07:43:31.060Z,1015.63
2017-07-15T07:44:31.124Z,1015.60
2017-07-15T07:45:26.493Z,1015.63
2017-07-15T07:46:20.314Z,1015.63
2017-07-15T07:47:15.373Z,1015.60
2017-07-15T07:48:09.361Z,1015.64
2017-07-15T07:48:58.388Z,1015.65
2017-07-15T07:49:53.648Z,1015.67
2017-07-15T07:50:47.433Z,1015.70
2017-07-15T07:51:41.700Z,1015.65
2017-07-15T07:52:35.558Z,1015.64
2017-07-15T07:53:29.733Z,1015.58
2017-07-15T07:54:23.635Z,1015.62
2017-07-15T07:55:23.705Z,1015.57
2017-07-15T07:56:18.768Z,1015.58
2017-07-15T07:57:06.874Z,1015.50
2017-07-15T07:57:56.251Z,1015.52
2017-07-15T07:58:49.875Z,1015.52
2017-07-15T07:59:44.945Z,1015.52
2017-07-15T08:00:33.015Z,1015.61
2017-07-15T08:01:21.450Z,1015.47
2017-07-15T08:02:10.122Z,1015.69
2017-07-15T08:03:04.486Z,1015.51
2017-07-15T08:04:04.195Z,1015.57
2017-07-15T08:04:58.599Z,1015.63
2017-07-15T08:05:59.618Z,1015.45
2017-07-15T08:06:53.690Z,1015.57
2017-07-15T08:07:48.825Z,1015.67
2017-07-15T08:08:42.743Z,1015.72
2017-07-15T08:09:36.800Z,1015.82
2017-07-15T08:10:24.920Z,1015.89
2017-07-15T08:11:24.978Z,1015.59
2017-07-15T08:12:19.039Z,1015.73
2017-07-15T08:13:14.068Z,1015.71
2017-07-15T08:14:09.089Z,1015.84
2017-07-15T08:15:03.272Z,1015.79
2017-07-15T08:15:58.215Z,1015.77
2017-07-15T08:16:59.340Z,1015.75
2017-07-15T08:17:54.333Z,1015.76
2017-07-15T08:18:49.364Z,1015.79
2017-07-15T08:19:44.487Z,1015.81
2017-07-15T08:20:44.549Z,1015.88
2017-07-15T08:21:38.467Z,1015.87
2017-07-15T08:22:32.557Z,1015.83
2017-07-15T08:23:21.614Z,1015.89
2017-07-15T08:24:15.763Z,1015.83
2017-07-15T08:25:10.652Z,1015.83
2017-07-15T08:25:59.813Z,1015.81
2017-07-15T08:26:53.879Z,1015.71
2017-07-15T08:27:53.675Z,1015.80
2017-07-15T08:28:48.853Z,1015.78
2017-07-15T08:29:43.164Z,1015.70
2017-07-15T08:30:38.104Z,1015.68
2017-07-15T08:31:32.097Z,1015.67
2017-07-15T08:32:26.221Z,1015.66
2017-07-15T08:33:20.260Z,1015.65
2017-07-15T08:34:09.089Z,1015.67
2017-07-15T08:35:04.496Z,1015.67
2017-07-15T08:35:53.055Z,1015.70
2017-07-15T08:36:53.578Z,1015.66
2017-07-15T08:37:47.414Z,1015.75
2017-07-15T08:38:41.157Z,1015.79
2017-07-15T08:39:41.253Z,1015.88
2017-07-15T08:40:41.889Z,1015.89
2017-07-15T08:41:36.423Z,1015.89
2017-07-15T08:42:30.493Z,1015.94
2017-07-15T08:43:24.749Z,1016.00
2017-07-15T08:44:24.439Z,1016.08
2017-07-15T08:45:24.575Z,1016.12
2017-07-15T08:46:13.782Z,1016.15
2017-07-15T08:47:07.583Z,1016.18
2017-07-15T08:48:01.683Z,1016.18
2017-07-15T08:48:49.820Z,1016.20
2017-07-15T08:49:44.856Z,1016.18
2017-07-15T08:50:38.911Z,1016.17
2017-07-15T08:51:34.337Z,1016.23
2017-07-15T08:52:28.982Z,1016.21
2017-07-15T08:53:22.981Z,1016.21
2017-07-15T08:54:17.007Z,1016.15
2017-07-15T08:55:11.216Z,1016.13
2017-07-15T08:56:05.194Z,1016.06
2017-07-15T08:56:59.743Z,1015.98
2017-07-15T08:57:53.175Z,1016.25
2017-07-15T08:58:53.236Z,1016.19
2017-07-15T08:59:48.426Z,1016.06
2017-07-15T09:00:43.454Z,1016.01
2017-07-15T09:01:38.611Z,1015.95
2017-07-15T09:02:39.546Z,1015.86
2017-07-15T09:03:34.648Z,1015.88
2017-07-15T09:04:29.584Z,1015.87
2017-07-15T09:05:24.622Z,1015.82
2017-07-15T09:06:24.631Z,1015.77
2017-07-15T09:07:12.720Z,1015.80
2017-07-15T09:08:06.682Z,1015.85
2017-07-15T09:09:01.043Z,1015.83
2017-07-15T09:09:49.832Z,1015.83
2017-07-15T09:10:37.982Z,1015.79
2017-07-15T09:11:33.466Z,1015.86
2017-07-15T09:12:27.039Z,1016.00
2017-07-15T09:13:21.325Z,1015.74
2017-07-15T09:14:16.148Z,1015.85
2017-07-15T09:15:11.159Z,1015.83
2017-07-15T09:16:05.527Z,1015.92
2017-07-15T09:17:05.199Z,1016.00
2017-07-15T09:18:00.401Z,1016.08
2017-07-15T09:18:49.371Z,1016.02
2017-07-15T09:19:43.378Z,1016.16
2017-07-15T09:20:43.508Z,1016.08
2017-07-15T09:21:37.509Z,1016.38
2017-07-15T09:22:37.582Z,1015.96
2017-07-15T09:23:25.746Z,1016.39
2017-07-15T09:24:15.013Z,1016.24
2017-07-15T09:25:03.820Z,1016.13
2017-07-15T09:25:52.734Z,1016.18
2017-07-15T09:26:47.182Z,1016.22
2017-07-15T09:27:47.360Z,1016.05
2017-07-15T09:28:42.392Z,1015.93
2017-07-15T09:29:30.080Z,1015.89
2017-07-15T09:30:31.118Z,1015.86
2017-07-15T09:31:31.633Z,1015.92
2017-07-15T09:32:26.194Z,1015.97
2017-07-15T09:33:15.569Z,1015.97
2017-07-15T09:34:15.373Z,1015.93
2017-07-15T09:35:09.512Z,1015.84
2017-07-15T09:36:04.728Z,1015.89
2017-07-15T09:37:04.376Z,1015.90
2017-07-15T09:37:58.656Z,1015.90
2017-07-15T09:38:59.635Z,1015.97
2017-07-15T09:39:53.732Z,1016.05
2017-07-15T09:40:47.946Z,1016.07
2017-07-15T09:41:48.067Z,1016.15
2017-07-15T09:42:41.787Z,1016.20
2017-07-15T09:43:42.231Z,1016.21
2017-07-15T09:44:37.152Z,1016.27
2017-07-15T09:45:36.967Z,1016.32
2017-07-15T09:46:32.071Z,1016.34
2017-07-15T09:47:27.075Z,1016.35
2017-07-15T09:48:28.065Z,1016.33
2017-07-15T09:49:22.088Z,1016.32
2017-07-15T09:50:16.197Z,1016.30
2017-07-15T09:51:11.559Z,1016.28
2017-07-15T09:52:11.270Z,1016.28
2017-07-15T09:53:05.359Z,1016.25
2017-07-15T09:54:00.358Z,1016.19
2017-07-15T09:54:49.440Z,1016.33
2017-07-15T09:55:43.468Z,1016.30
2017-07-15T09:56:37.568Z,1016.26
2017-07-15T09:57:31.769Z,1016.42
2017-07-15T09:58:19.622Z,1016.08
2017-07-15T09:59:20.794Z,1016.02
2017-07-15T10:00:20.983Z,1016.05
2017-07-15T10:01:15.027Z,1016.09
2017-07-15T10:02:08.987Z,1016.12
2017-07-15T10:03:04.131Z,1016.08
2017-07-15T10:03:52.969Z,1016.04
2017-07-15T10:04:47.240Z,1016.21
2017-07-15T10:05:41.371Z,1016.06
2017-07-15T10:06:35.551Z,1016.00
2017-07-15T10:07:29.532Z,1015.97
2017-07-15T10:08:23.728Z,1016.07
2017-07-15T10:09:18.617Z,1016.04
2017-07-15T10:10:13.766Z,1016.08
2017-07-15T10:11:14.810Z,1016.15
2017-07-15T10:12:14.847Z,1016.15
2017-07-15T10:13:08.940Z,1016.18
2017-07-15T10:14:02.971Z,1016.32
2017-07-15T10:14:57.026Z,1016.32
2017-07-15T10:15:50.946Z,1016.22
2017-07-15T10:16:46.030Z,1016.29
2017-07-15T10:17:40.184Z,1016.41
2017-07-15T10:18:34.251Z,1016.30
2017-07-15T10:19:28.419Z,1016.12
2017-07-15T10:20:23.331Z,1016.01
2017-07-15T10:21:17.421Z,1016.09
2017-07-15T10:22:05.462Z,1016.07
2017-07-15T10:22:59.031Z,1016.05
2017-07-15T10:23:48.100Z,1015.90
2017-07-15T10:24:43.229Z,1015.66
2017-07-15T10:25:37.683Z,1015.82
2017-07-15T10:26:26.684Z,1015.70
2017-07-15T10:27:20.747Z,1015.78
2017-07-15T10:28:14.912Z,1015.91
2017-07-15T10:29:14.858Z,1016.10
2017-07-15T10:30:04.034Z,1015.93
2017-07-15T10:30:59.072Z,1016.15
2017-07-15T10:31:53.092Z,1015.75
2017-07-15T10:32:48.150Z,1015.93
2017-07-15T10:33:37.016Z,1015.91
2017-07-15T10:34:26.212Z,1016.04
2017-07-15T10:35:26.324Z,1016.05
2017-07-15T10:36:21.464Z,1016.04
2017-07-15T10:37:16.278Z,1016.10
2017-07-15T10:38:10.390Z,1016.20
2017-07-15T10:39:05.526Z,1016.34
2017-07-15T10:39:54.500Z,1016.06
2017-07-15T10:40:54.564Z,1016.17
2017-07-15T10:41:54.852Z,1016.34
2017-07-15T10:42:48.803Z,1016.48
2017-07-15T10:43:43.441Z,1016.46
2017-07-15T10:44:37.641Z,1016.38
2017-07-15T10:45:31.773Z,1016.48
2017-07-15T10:46:26.659Z,1016.50
2017-07-15T10:47:21.736Z,1016.28
2017-07-15T10:48:15.741Z,1016.39
2017-07-15T10:49:09.752Z,1016.38
2017-07-15T10:50:09.904Z,1016.36
2017-07-15T10:51:04.929Z,1016.37
2017-07-15T10:51:59.440Z,1016.30